Time;durP1;ratioP1;P1;durP2;ratioP2;P2;SDS_P1;SDS_P2;PMS_P1;PMS_P2;Temp;Humidity;BMP_temperature;BMP_pressure;BME280_temperature;BME280_humidity;BME280_pressure;Samples;Min_cycle;Max_cycle;Signal;HPM_P1;HPM_P2
2022/11/01 00:01:56;;;;;;;11.68;3.30;;;14.00;99.90;;;;;;5104472;28;20052;-69
2022/11/01 00:04:21;;;;;;;8.48;2.80;;;14.00;99.90;;;;;;5095987;27;20040;-68
2022/11/01 00:06:48;;;;;;;11.18;3.03;;;14.00;99.90;;;;;;5096479;28;20032;-70
2022/11/01 00:09:13;;;;;;;8.02;2.90;;;14.10;99.90;;;;;;5090525;28;20043;-70
2022/11/01 00:11:39;;;;;;;12.15;3.35;;;14.10;99.90;;;;;;5085853;28;20051;-69
2022/11/01 00:14:05;;;;;;;10.82;2.90;;;14.20;99.90;;;;;;5086889;28;20117;-70
2022/11/01 00:16:31;;;;;;;14.40;4.28;;;14.30;99.90;;;;;;5086279;28;20067;-69
2022/11/01 00:18:57;;;;;;;14.90;3.22;;;14.30;99.90;;;;;;5085407;28;20109;-69
2022/11/01 00:21:23;;;;;;;15.32;2.78;;;14.30;99.90;;;;;;5085866;28;20252;-70
2022/11/01 00:23:48;;;;;;;8.30;3.45;;;14.30;99.90;;;;;;5082492;28;20082;-70
2022/11/01 00:26:17;;;;;;;7.82;3.00;;;14.30;99.90;;;;;;5088977;28;20039;-70
2022/11/01 00:28:43;;;;;;;9.75;3.97;;;14.20;99.90;;;;;;5084355;28;20039;-70
2022/11/01 00:31:09;;;;;;;15.18;3.17;;;14.20;99.90;;;;;;5085297;28;20051;-70
2022/11/01 00:33:36;;;;;;;9.05;2.67;;;14.20;99.90;;;;;;5084625;28;20028;-69
2022/11/01 00:36:02;;;;;;;15.43;3.42;;;14.20;99.90;;;;;;5088939;28;20038;-69
2022/11/01 00:38:27;;;;;;;11.10;3.40;;;14.20;99.90;;;;;;5088759;28;20419;-69
2022/11/01 00:40:53;;;;;;;5.43;2.65;;;14.20;99.90;;;;;;5088833;28;20032;-70
2022/11/01 00:43:19;;;;;;;11.30;3.03;;;14.30;99.90;;;;;;5087163;28;20066;-71
2022/11/01 00:45:45;;;;;;;11.90;3.08;;;14.30;99.90;;;;;;5085797;28;20500;-70
2022/11/01 00:48:11;;;;;;;9.82;2.88;;;14.40;99.90;;;;;;5087484;28;20035;-69
2022/11/01 00:50:38;;;;;;;16.77;2.63;;;14.40;99.90;;;;;;5088748;28;20484;-69
2022/11/01 00:53:04;;;;;;;6.95;2.63;;;14.50;99.90;;;;;;5088620;28;20088;-69
2022/11/01 00:55:30;;;;;;;9.35;2.83;;;14.50;99.90;;;;;;5088442;28;20195;-71
2022/11/01 00:57:56;;;;;;;6.88;2.10;;;14.60;99.90;;;;;;5087304;28;20127;-70
2022/11/01 01:00:21;;;;;;;14.70;2.53;;;14.60;99.90;;;;;;5088952;28;20028;-69
2022/11/01 01:02:47;;;;;;;8.93;2.47;;;14.70;99.90;;;;;;5086377;28;20089;-68
2022/11/01 01:05:12;;;;;;;11.80;2.90;;;14.80;99.90;;;;;;5088260;28;20508;-71
2022/11/01 01:07:38;;;;;;;8.93;2.65;;;14.80;99.90;;;;;;5087969;28;20043;-70
2022/11/01 01:10:06;;;;;;;6.32;2.70;;;14.80;99.90;;;;;;5086831;28;20032;-68
2022/11/01 01:12:31;;;;;;;6.53;3.05;;;14.80;99.90;;;;;;5088950;28;20085;-69
2022/11/01 01:14:57;;;;;;;9.30;2.55;;;14.80;99.90;;;;;;5087729;28;20651;-71
2022/11/01 01:17:23;;;;;;;7.03;2.58;;;14.80;99.90;;;;;;5088044;28;20036;-70
2022/11/01 01:19:49;;;;;;;5.97;2.08;;;14.80;99.90;;;;;;5087768;28;20402;-68
2022/11/01 01:22:15;;;;;;;6.70;3.22;;;14.80;99.90;;;;;;5088039;28;20039;-70
2022/11/01 01:24:44;;;;;;;12.60;2.67;;;14.80;99.90;;;;;;5086873;28;20032;-69
2022/11/01 01:27:11;;;;;;;12.77;2.63;;;14.90;99.90;;;;;;5088045;28;20559;-69
2022/11/01 01:29:40;;;;;;;10.48;2.40;;;14.90;99.90;;;;;;5087753;28;20559;-70
2022/11/01 01:32:07;;;;;;;6.15;2.47;;;14.80;99.90;;;;;;5098600;28;20438;-71
2022/11/01 01:34:32;;;;;;;12.40;2.75;;;14.80;99.90;;;;;;5105716;28;20036;-70
2022/11/01 01:36:58;;;;;;;7.78;2.42;;;14.80;99.90;;;;;;5106331;28;20171;-71
2022/11/01 01:39:24;;;;;;;8.02;2.70;;;14.90;99.90;;;;;;5108244;27;20046;-72
2022/11/01 01:41:55;;;;;;;10.10;2.67;;;14.90;99.90;;;;;;5107289;27;20035;-72
2022/11/01 01:44:59;;;;;;;6.03;2.72;;;14.80;99.90;;;;;;5102902;28;20069;-70
2022/11/01 01:47:33;;;;;;;6.78;2.05;;;14.90;99.90;;;;;;5066734;28;20039;-71
2022/11/01 01:50:14;;;;;;;7.95;2.10;;;14.90;99.90;;;;;;5107263;28;20035;-71
2022/11/01 01:52:48;;;;;;;11.00;2.28;;;14.90;99.90;;;;;;5105688;28;20045;-71
2022/11/01 01:55:17;;;;;;;11.43;3.08;;;14.90;99.90;;;;;;5107486;28;20913;-71
2022/11/01 01:57:43;;;;;;;11.10;1.80;;;14.90;99.90;;;;;;5106516;28;20029;-72
2022/11/01 02:00:10;;;;;;;5.32;1.77;;;15.00;99.90;;;;;;5106263;28;20039;-70
2022/11/01 02:02:36;;;;;;;7.45;2.10;;;15.00;99.90;;;;;;5106919;28;20031;-71
2022/11/01 02:05:14;;;;;;;9.93;2.22;;;15.10;99.90;;;;;;5106836;27;20456;-71
2022/11/01 02:07:40;;;;;;;5.63;2.20;;;15.10;99.90;;;;;;5106928;27;20054;-70
2022/11/01 02:10:07;;;;;;;3.40;1.77;;;15.10;99.90;;;;;;5106256;28;20032;-70
2022/11/01 02:12:35;;;;;;;8.85;2.28;;;15.20;99.90;;;;;;5109423;27;20493;-71
2022/11/01 02:15:02;;;;;;;5.32;1.98;;;15.20;99.90;;;;;;5106313;27;20038;-73
2022/11/01 02:17:45;;;;;;;6.78;2.42;;;15.30;99.90;;;;;;5105531;28;20097;-70
2022/11/01 02:20:24;;;;;;;5.63;2.05;;;15.40;99.90;;;;;;5106575;27;20032;-70
2022/11/01 02:23:08;;;;;;;8.73;2.13;;;15.40;99.90;;;;;;5102246;28;20036;-70
2022/11/01 02:25:53;;;;;;;11.73;2.13;;;15.50;99.90;;;;;;5101397;28;20051;-70
2022/11/01 02:28:39;;;;;;;11.23;1.95;;;15.60;99.90;;;;;;5102560;28;20036;-71
2022/11/01 02:31:13;;;;;;;7.15;2.30;;;15.60;99.90;;;;;;5104607;27;20050;-70
2022/11/01 02:33:45;;;;;;;7.47;1.88;;;15.60;99.90;;;;;;5105599;28;20035;-75
2022/11/01 02:36:20;;;;;;;17.10;2.53;;;15.70;99.90;;;;;;5096488;28;20031;-70
2022/11/01 02:39:09;;;;;;;5.55;1.65;;;15.70;99.90;;;;;;5104438;28;20044;-71
2022/11/01 02:41:43;;;;;;;6.20;2.00;;;15.70;99.90;;;;;;5074915;27;20129;-70
2022/11/01 02:44:14;;;;;;;6.28;1.90;;;15.70;99.90;;;;;;5084069;28;20020;-71
2022/11/01 02:47:00;;;;;;;5.97;1.88;;;15.70;99.90;;;;;;5083994;27;20036;-70
2022/11/01 02:49:49;;;;;;;7.47;1.70;;;15.70;99.90;;;;;;5107440;27;20032;-71
2022/11/01 02:52:20;;;;;;;5.80;1.50;;;15.70;99.90;;;;;;5084611;28;20036;-70
2022/11/01 02:55:02;;;;;;;4.72;1.70;;;15.70;99.90;;;;;;5080994;27;20027;-72
2022/11/01 02:57:39;;;;;;;10.70;2.55;;;15.70;99.90;;;;;;5083558;28;20123;-70
2022/11/01 03:00:29;;;;;;;3.78;1.17;;;15.70;99.90;;;;;;5086066;28;20032;-70
2022/11/01 03:03:14;;;;;;;9.40;1.95;;;15.60;99.90;;;;;;5101230;27;20039;-71
2022/11/01 03:06:07;;;;;;;3.80;1.73;;;15.50;99.90;;;;;;5105899;27;20035;-71
2022/11/01 03:08:58;;;;;;;8.68;2.45;;;15.60;99.90;;;;;;5104023;28;20036;-71
2022/11/01 03:11:31;;;;;;;8.13;1.83;;;15.60;99.90;;;;;;5101366;28;20157;-71
2022/11/01 03:14:10;;;;;;;4.25;1.77;;;15.50;99.90;;;;;;5104254;28;20467;-70
2022/11/01 03:16:55;;;;;;;6.45;1.90;;;15.50;99.90;;;;;;5105791;28;20051;-69
2022/11/01 03:19:39;;;;;;;6.05;1.70;;;15.50;99.90;;;;;;5101979;27;20035;-70
2022/11/01 03:22:27;;;;;;;6.93;1.10;;;15.40;99.90;;;;;;5104013;28;20365;-71
2022/11/01 03:25:16;;;;;;;3.53;0.80;;;15.50;99.90;;;;;;5101959;28;20047;-71
2022/11/01 03:27:45;;;;;;;3.63;0.80;;;15.50;99.90;;;;;;5105002;28;20046;-71
2022/11/01 03:30:13;;;;;;;2.97;0.60;;;15.40;99.90;;;;;;5106111;28;20032;-71
2022/11/01 03:32:48;;;;;;;4.15;0.70;;;15.50;99.90;;;;;;5105270;28;20039;-70
2022/11/01 03:35:21;;;;;;;1.73;0.50;;;15.40;99.90;;;;;;5101520;28;20031;-71
2022/11/01 03:37:50;;;;;;;1.95;0.15;;;15.30;99.90;;;;;;5101660;27;20096;-71
2022/11/01 03:40:17;;;;;;;1.00;0.10;;;15.20;99.90;;;;;;5100966;28;20036;-70
2022/11/01 03:42:47;;;;;;;2.92;0.52;;;15.20;99.90;;;;;;5102843;28;20058;-71
2022/11/01 03:45:15;;;;;;;5.20;0.30;;;15.10;99.90;;;;;;5103918;28;20038;-71
2022/11/01 03:47:41;;;;;;;2.08;0.55;;;14.90;99.90;;;;;;5106229;28;20042;-69
2022/11/01 03:50:15;;;;;;;1.92;0.20;;;14.90;99.90;;;;;;5106121;28;20039;-69
2022/11/01 03:52:41;;;;;;;0.85;0.20;;;14.80;99.90;;;;;;5104572;28;20023;-71
2022/11/01 03:55:19;;;;;;;2.42;0.30;;;14.80;99.90;;;;;;5105160;28;20039;-70
2022/11/01 03:57:52;;;;;;;2.47;0.20;;;14.80;99.90;;;;;;5101348;28;20118;-72
2022/11/01 04:00:22;;;;;;;5.85;1.13;;;14.80;99.90;;;;;;5092952;28;20047;-69
2022/11/01 04:02:52;;;;;;;0.28;0.17;;;14.80;99.90;;;;;;5104635;27;20084;-70
2022/11/01 04:05:18;;;;;;;2.35;0.45;;;14.80;99.90;;;;;;5105858;28;20071;-72
2022/11/01 04:07:44;;;;;;;1.23;0.20;;;14.80;99.90;;;;;;5103283;28;20043;-72
2022/11/01 04:10:11;;;;;;;1.77;0.40;;;14.70;99.90;;;;;;5105712;28;20915;-70
2022/11/01 04:12:37;;;;;;;7.47;0.30;;;14.70;99.90;;;;;;5095600;27;20047;-71
2022/11/01 04:20:31;;;;;;;2.63;0.28;;;14.50;99.90;;;;;;5105110;28;20038;-70
2022/11/01 04:23:01;;;;;;;1.13;0.43;;;14.40;99.90;;;;;;5104857;28;20047;-69
2022/11/01 04:25:27;;;;;;;2.07;0.90;;;14.40;99.90;;;;;;5103528;28;20031;-72
2022/11/01 04:27:55;;;;;;;3.22;0.10;;;14.30;99.90;;;;;;5105021;28;20277;-71
2022/11/01 04:30:24;;;;;;;1.90;0.20;;;14.30;99.90;;;;;;5104302;28;20046;-69
2022/11/01 04:32:50;;;;;;;2.20;0.38;;;14.30;99.90;;;;;;5098426;28;20058;-70
2022/11/01 04:35:16;;;;;;;1.75;0.20;;;14.30;99.90;;;;;;5105152;28;20067;-71
2022/11/01 04:37:41;;;;;;;2.13;0.30;;;14.30;99.90;;;;;;5104982;28;20503;-69
2022/11/01 04:40:08;;;;;;;5.63;0.40;;;14.30;99.90;;;;;;5105229;28;20077;-69
2022/11/01 04:42:34;;;;;;;3.72;0.32;;;14.20;99.90;;;;;;5105159;28;20024;-71
2022/11/01 04:45:00;;;;;;;1.33;0.20;;;14.30;99.90;;;;;;5104434;28;20688;-70
2022/11/01 04:47:26;;;;;;;2.08;0.10;;;14.30;99.90;;;;;;5104309;28;20755;-71
2022/11/01 04:49:51;;;;;;;3.88;0.45;;;14.20;99.90;;;;;;5104386;28;20044;-71
2022/11/01 04:52:17;;;;;;;1.95;0.20;;;14.20;99.90;;;;;;5105740;28;20036;-69
2022/11/01 04:54:43;;;;;;;2.92;0.65;;;14.10;99.90;;;;;;5103945;28;20491;-71
2022/11/01 04:57:21;;;;;;;2.85;0.50;;;14.10;99.90;;;;;;5105115;28;20065;-71
2022/11/01 04:59:47;;;;;;;2.97;0.80;;;14.00;99.90;;;;;;5096197;28;20116;-71
2022/11/01 05:02:13;;;;;;;3.72;0.40;;;13.90;99.90;;;;;;5105655;28;20034;-71
2022/11/01 05:04:39;;;;;;;3.58;0.60;;;14.00;99.90;;;;;;5102892;28;20028;-71
2022/11/01 05:07:04;;;;;;;1.73;0.60;;;13.90;99.90;;;;;;5102519;28;20047;-70
2022/11/01 05:09:30;;;;;;;4.13;0.50;;;13.80;99.90;;;;;;5106137;28;20204;-71
2022/11/01 05:11:55;;;;;;;4.75;0.73;;;13.80;99.90;;;;;;5105964;28;20089;-70
2022/11/01 05:14:21;;;;;;;6.78;1.02;;;13.80;99.90;;;;;;5105518;28;20035;-69
2022/11/01 05:16:46;;;;;;;3.53;0.80;;;13.80;99.90;;;;;;5105633;28;20041;-70
2022/11/01 05:19:12;;;;;;;6.80;1.35;;;13.80;99.90;;;;;;5107202;28;20118;-70
2022/11/01 05:21:37;;;;;;;5.55;0.55;;;13.70;99.90;;;;;;5103742;28;20881;-71
2022/11/01 05:24:03;;;;;;;7.85;0.57;;;13.70;99.90;;;;;;5108797;28;20540;-70
2022/11/01 05:26:29;;;;;;;4.85;0.50;;;13.70;99.90;;;;;;5109748;28;20035;-71
2022/11/01 05:28:54;;;;;;;5.10;1.00;;;13.70;99.90;;;;;;5109635;28;20032;-71
2022/11/01 05:31:20;;;;;;;12.13;1.20;;;13.70;99.90;;;;;;5108642;27;20523;-70
2022/11/01 05:33:45;;;;;;;4.75;0.60;;;13.60;99.90;;;;;;5107801;27;20530;-70
2022/11/01 05:36:11;;;;;;;4.43;0.32;;;13.50;99.90;;;;;;5109559;27;20054;-70
2022/11/01 05:38:37;;;;;;;3.40;0.45;;;13.60;99.90;;;;;;5108698;27;20760;-69
2022/11/01 05:41:03;;;;;;;7.43;1.10;;;13.50;99.90;;;;;;5109146;27;20050;-69
2022/11/01 05:43:28;;;;;;;4.88;0.88;;;13.50;99.90;;;;;;5108836;27;20028;-69
2022/11/01 05:45:54;;;;;;;5.45;0.90;;;13.50;99.90;;;;;;5107319;27;20502;-69
2022/11/01 05:48:19;;;;;;;8.63;0.80;;;13.50;99.90;;;;;;5109773;28;20035;-70
2022/11/01 05:50:45;;;;;;;8.32;0.85;;;13.40;99.90;;;;;;5108389;27;20151;-68
2022/11/01 05:53:11;;;;;;;16.98;0.68;;;13.40;99.90;;;;;;5109663;27;20372;-72
2022/11/01 05:55:38;;;;;;;2.53;0.60;;;13.40;99.90;;;;;;5103175;28;20080;-69
2022/11/01 05:58:04;;;;;;;9.27;1.65;;;13.40;99.90;;;;;;5103749;27;20051;-71
2022/11/01 06:00:31;;;;;;;7.90;0.98;;;13.40;99.90;;;;;;5090565;28;20066;-69
2022/11/01 06:03:00;;;;;;;7.38;1.35;;;13.40;99.90;;;;;;5085868;28;20040;-70
2022/11/01 06:05:26;;;;;;;4.95;0.60;;;13.30;99.90;;;;;;5088039;28;20032;-69
2022/11/01 06:07:51;;;;;;;6.05;0.57;;;13.40;99.90;;;;;;5084399;28;20063;-69
2022/11/01 06:10:17;;;;;;;5.45;0.93;;;13.40;99.90;;;;;;5085679;28;20044;-71
2022/11/01 06:12:43;;;;;;;4.50;0.40;;;13.40;99.90;;;;;;5085978;28;20089;-70
2022/11/01 06:15:09;;;;;;;4.28;0.57;;;13.40;99.90;;;;;;5082633;28;20063;-69
2022/11/01 06:17:34;;;;;;;6.30;0.85;;;13.50;99.90;;;;;;5092123;28;20042;-71
2022/11/01 06:20:00;;;;;;;4.35;0.90;;;13.50;99.90;;;;;;5086160;28;20461;-69
2022/11/01 06:22:26;;;;;;;8.95;0.73;;;13.50;99.90;;;;;;5083825;28;20505;-69
2022/11/01 06:24:51;;;;;;;4.95;1.00;;;13.50;99.90;;;;;;5085695;28;20036;-70
2022/11/01 06:27:17;;;;;;;7.03;0.80;;;13.40;99.90;;;;;;5084768;28;20076;-70
2022/11/01 06:29:42;;;;;;;7.13;1.20;;;13.40;99.90;;;;;;5092343;27;20032;-68
2022/11/01 06:32:08;;;;;;;6.78;0.52;;;13.40;99.90;;;;;;5089612;28;20474;-71
2022/11/01 06:34:33;;;;;;;9.40;1.58;;;13.30;99.90;;;;;;5092881;27;20130;-70
2022/11/01 06:36:59;;;;;;;8.88;1.35;;;13.30;99.90;;;;;;5101554;28;20039;-70
2022/11/01 06:39:25;;;;;;;14.10;1.30;;;13.30;99.90;;;;;;5101530;27;20032;-70
2022/11/01 06:41:51;;;;;;;8.23;1.00;;;13.20;99.90;;;;;;5102275;28;20043;-70
2022/11/01 06:44:16;;;;;;;6.00;0.80;;;13.20;99.90;;;;;;5100770;28;20038;-70
2022/11/01 06:46:42;;;;;;;9.38;1.08;;;13.20;99.90;;;;;;5101050;27;20446;-71
2022/11/01 06:49:08;;;;;;;12.23;0.90;;;13.20;99.90;;;;;;5101099;27;20032;-69
2022/11/01 06:51:33;;;;;;;5.18;1.23;;;13.20;99.90;;;;;;5100883;27;20089;-71
2022/11/01 06:53:59;;;;;;;7.55;1.60;;;13.20;99.90;;;;;;5104465;28;20036;-70
2022/11/01 06:56:24;;;;;;;7.65;0.85;;;13.20;99.90;;;;;;5099908;28;20035;-70
2022/11/01 06:58:50;;;;;;;8.50;1.63;;;13.00;99.90;;;;;;5103637;28;20080;-71
2022/11/01 07:01:20;;;;;;;8.80;0.80;;;13.10;99.90;;;;;;5105258;27;20650;-70
2022/11/01 07:03:52;;;;;;;6.80;0.90;;;13.10;99.90;;;;;;5100089;28;20031;-73
2022/11/01 07:06:18;;;;;;;10.77;0.82;;;13.00;99.90;;;;;;5102480;28;20039;-70
2022/11/01 07:08:44;;;;;;;15.00;1.33;;;13.10;99.90;;;;;;5103540;28;20040;-69
2022/11/01 07:11:09;;;;;;;6.55;1.20;;;13.10;99.90;;;;;;5102431;27;20056;-70
2022/11/01 07:13:37;;;;;;;10.00;1.98;;;13.00;99.90;;;;;;5098754;28;20031;-70
2022/11/01 07:16:03;;;;;;;11.98;1.15;;;13.00;99.90;;;;;;5100821;28;20047;-70
2022/11/01 07:18:33;;;;;;;7.80;0.88;;;13.10;99.90;;;;;;5104714;28;20063;-71
2022/11/01 07:21:03;;;;;;;6.57;1.15;;;13.00;99.90;;;;;;5102689;27;20032;-70
2022/11/01 07:23:29;;;;;;;;;;;13.10;99.90;;;;;;5102642;28;20035;-70
2022/11/01 07:25:55;;;;;;;20.88;1.83;;;13.10;99.90;;;;;;5101855;28;19926;-70
2022/11/01 07:28:21;;;;;;;13.88;1.52;;;13.10;99.90;;;;;;5099660;28;20040;-70
2022/11/01 07:30:49;;;;;;;11.00;0.90;;;13.10;99.90;;;;;;5084416;28;20130;-70
2022/11/01 07:33:15;;;;;;;9.52;0.80;;;13.10;99.90;;;;;;5082797;28;20028;-71
2022/11/01 07:35:40;;;;;;;12.27;2.13;;;13.10;99.90;;;;;;5083673;28;20054;-69
2022/11/01 07:38:07;;;;;;;13.25;2.45;;;13.10;99.90;;;;;;5086837;28;20043;-70
2022/11/01 07:40:34;;;;;;;9.13;1.63;;;13.10;99.90;;;;;;5078386;28;20706;-69
2022/11/01 07:42:59;;;;;;;7.28;1.27;;;13.10;99.90;;;;;;5078612;28;20450;-70
2022/11/01 07:45:28;;;;;;;9.80;2.30;;;13.10;99.90;;;;;;5083596;28;20031;-69
2022/11/01 07:48:01;;;;;;;14.40;1.60;;;13.30;99.90;;;;;;5080578;28;20044;-70
2022/11/01 07:50:28;;;;;;;7.72;1.00;;;13.30;99.90;;;;;;5078319;28;20028;-70
2022/11/01 07:53:06;;;;;;;7.45;1.42;;;13.30;99.90;;;;;;5083952;28;20607;-68
2022/11/01 07:55:32;;;;;;;5.50;1.00;;;13.30;99.90;;;;;;5076460;28;20023;-70
2022/11/01 07:57:57;;;;;;;9.60;1.23;;;13.30;99.90;;;;;;5084748;28;20084;-70
2022/11/01 08:00:23;;;;;;;9.80;1.63;;;13.30;99.90;;;;;;5081063;28;20040;-69
2022/11/01 08:02:49;;;;;;;9.43;1.17;;;13.30;99.90;;;;;;5083089;28;20396;-70
2022/11/01 08:05:15;;;;;;;9.00;1.48;;;13.30;99.90;;;;;;5081305;28;20489;-69
2022/11/01 08:07:41;;;;;;;7.18;0.75;;;13.40;99.90;;;;;;5081928;28;20043;-72
2022/11/01 08:10:09;;;;;;;11.88;1.00;;;13.40;99.90;;;;;;5081992;28;20028;-70
2022/11/01 08:12:35;;;;;;;7.13;0.85;;;13.40;99.90;;;;;;5077925;28;20036;-71
2022/11/01 08:15:01;;;;;;;13.30;1.70;;;13.50;99.90;;;;;;5076089;28;20047;-71
2022/11/01 08:17:28;;;;;;;8.10;1.70;;;13.50;99.90;;;;;;5087202;28;20651;-69
2022/11/01 08:19:54;;;;;;;9.88;1.10;;;13.50;99.90;;;;;;5080202;28;20540;-71
2022/11/01 08:22:19;;;;;;;7.50;0.73;;;13.50;99.90;;;;;;5083311;28;20043;-69
2022/11/01 08:24:45;;;;;;;11.95;2.47;;;13.50;99.90;;;;;;5082858;28;20580;-70
2022/11/01 08:27:10;;;;;;;15.32;1.25;;;13.60;99.90;;;;;;5079710;28;20036;-69
2022/11/01 08:29:36;;;;;;;15.07;1.08;;;13.70;99.90;;;;;;5077078;28;20115;-70
2022/11/01 08:32:02;;;;;;;9.05;1.80;;;13.80;99.90;;;;;;5077668;28;20040;-72
2022/11/01 08:34:29;;;;;;;10.93;1.33;;;13.80;99.90;;;;;;5080937;28;20078;-70
2022/11/01 08:36:55;;;;;;;9.75;1.38;;;13.80;99.90;;;;;;5084658;28;20357;-72
2022/11/01 08:39:21;;;;;;;8.13;1.45;;;13.80;99.90;;;;;;5082487;28;20032;-70
2022/11/01 08:41:48;;;;;;;3.45;0.98;;;13.90;99.90;;;;;;5080147;28;20055;-69
2022/11/01 08:44:14;;;;;;;11.85;1.30;;;13.90;99.90;;;;;;5078486;28;20032;-69
2022/11/01 08:46:41;;;;;;;8.57;1.20;;;13.90;99.90;;;;;;5083219;28;20413;-69
2022/11/01 08:49:08;;;;;;;13.02;1.38;;;13.90;99.90;;;;;;5081792;28;20044;-68
2022/11/01 08:51:34;;;;;;;9.48;1.00;;;13.90;99.90;;;;;;5082668;28;20123;-70
2022/11/01 08:54:00;;;;;;;7.35;0.82;;;14.00;99.90;;;;;;5082109;28;20683;-67
2022/11/01 08:56:26;;;;;;;7.75;1.35;;;14.00;99.90;;;;;;5079681;28;20036;-69
2022/11/01 08:58:53;;;;;;;12.30;2.17;;;14.00;99.90;;;;;;5082072;28;20042;-68
2022/11/01 09:01:19;;;;;;;14.80;1.48;;;14.10;99.90;;;;;;5088020;28;20119;-69
2022/11/01 09:03:45;;;;;;;7.35;0.93;;;14.00;99.90;;;;;;5085785;28;20085;-71
2022/11/01 09:06:11;;;;;;;6.38;1.20;;;13.90;99.90;;;;;;5082608;28;20040;-70
2022/11/01 09:08:37;;;;;;;9.05;1.42;;;14.00;99.90;;;;;;5084440;28;20035;-71
2022/11/01 09:11:05;;;;;;;12.55;1.95;;;14.00;99.90;;;;;;5079639;28;20036;-71
2022/11/01 09:13:31;;;;;;;5.55;1.20;;;14.00;99.90;;;;;;5084277;28;20040;-71
2022/11/01 09:15:56;;;;;;;7.25;1.25;;;14.00;99.90;;;;;;5083858;28;20063;-71
2022/11/01 09:18:22;;;;;;;11.85;0.90;;;14.00;99.90;;;;;;5085050;28;20052;-71
2022/11/01 09:20:54;;;;;;;6.05;1.15;;;14.00;99.90;;;;;;5081350;28;20512;-71
2022/11/01 09:23:20;;;;;;;12.82;0.90;;;14.00;99.90;;;;;;5084340;28;20342;-70
2022/11/01 09:25:46;;;;;;;5.65;0.90;;;14.00;99.90;;;;;;5077960;28;20043;-72
2022/11/01 09:28:12;;;;;;;8.00;0.93;;;14.20;99.90;;;;;;5087096;28;20027;-71
2022/11/01 09:30:39;;;;;;;10.57;1.30;;;14.30;99.90;;;;;;5083087;28;20408;-70
2022/11/01 09:33:05;;;;;;;9.68;0.80;;;14.40;99.90;;;;;;5083115;28;20028;-70
2022/11/01 09:35:31;;;;;;;14.48;1.73;;;14.50;99.90;;;;;;5080213;28;20600;-73
2022/11/01 09:37:58;;;;;;;6.22;0.82;;;14.60;99.90;;;;;;5088743;28;20059;-70
2022/11/01 09:40:24;;;;;;;12.00;0.90;;;14.60;99.90;;;;;;5081026;28;20392;-71
2022/11/01 09:42:52;;;;;;;12.32;2.28;;;14.60;99.90;;;;;;5082353;28;20028;-69
2022/11/01 09:45:25;;;;;;;6.18;0.70;;;14.60;99.90;;;;;;5081493;28;20052;-69
2022/11/01 09:47:53;;;;;;;13.52;2.08;;;14.70;99.90;;;;;;5079613;28;20055;-70
2022/11/01 09:50:26;;;;;;;6.90;1.63;;;14.80;99.90;;;;;;5083006;28;20032;-70
2022/11/01 09:52:54;;;;;;;6.00;0.95;;;14.80;99.90;;;;;;5083763;28;20044;-69
2022/11/01 09:55:30;;;;;;;16.67;1.35;;;14.90;99.90;;;;;;5083562;28;20029;-70
2022/11/01 09:58:29;;;;;;;7.82;0.82;;;14.90;99.90;;;;;;5078661;28;20064;-71
2022/11/01 10:01:18;;;;;;;6.03;1.63;;;15.00;99.90;;;;;;5077672;28;20123;-71
2022/11/01 10:04:12;;;;;;;9.13;1.00;;;15.00;99.90;;;;;;5078316;28;20658;-70
2022/11/01 10:06:58;;;;;;;6.50;1.20;;;14.90;99.90;;;;;;5083487;28;20122;-71
2022/11/01 10:09:58;;;;;;;5.88;1.88;;;15.00;99.90;;;;;;5106357;27;20411;-70
2022/11/01 10:12:26;;;;;;;;;;;15.00;99.90;;;;;;5093129;27;20043;-70
2022/11/01 10:15:03;;;;;;;13.00;1.08;;;15.00;99.90;;;;;;5091119;27;19947;-70
2022/11/01 10:17:48;;;;;;;3.58;0.90;;;15.00;99.90;;;;;;5084785;28;20043;-72
2022/11/01 10:20:14;;;;;;;6.85;1.00;;;15.10;99.90;;;;;;5095607;28;20046;-70
2022/11/01 10:22:43;;;;;;;13.50;1.00;;;15.10;99.90;;;;;;5103532;27;20032;-70
2022/11/01 10:25:30;;;;;;;11.43;1.75;;;15.10;99.90;;;;;;5091924;27;20042;-70
2022/11/01 10:28:14;;;;;;;9.07;0.75;;;15.10;99.90;;;;;;5084728;28;20044;-71
2022/11/01 10:30:47;;;;;;;6.38;1.58;;;15.20;99.90;;;;;;5085334;28;20105;-72
2022/11/01 10:33:25;;;;;;;6.50;0.85;;;15.20;99.90;;;;;;5103880;28;20035;-72
2022/11/01 10:35:58;;;;;;;9.57;0.93;;;15.20;99.90;;;;;;5098909;27;20118;-70
2022/11/01 10:38:49;;;;;;;5.05;0.93;;;15.30;99.90;;;;;;5098412;28;20036;-72
2022/11/01 10:41:34;;;;;;;5.47;0.90;;;15.30;99.90;;;;;;5090266;28;20031;-70
2022/11/01 10:44:04;;;;;;;8.60;1.10;;;15.40;99.90;;;;;;5100847;28;20400;-71
2022/11/01 10:46:38;;;;;;;8.10;1.00;;;15.80;99.90;;;;;;5104439;28;20043;-73
2022/11/01 10:49:13;;;;;;;6.43;1.20;;;16.30;99.90;;;;;;5104335;28;20058;-73
2022/11/01 10:51:41;;;;;;;8.70;1.05;;;16.70;99.90;;;;;;5120241;27;20078;-68
2022/11/01 10:54:19;;;;;;;8.63;1.73;;;16.90;99.90;;;;;;5101146;27;20028;-70
2022/11/01 10:56:49;;;;;;;13.63;0.95;;;16.70;99.90;;;;;;5101660;28;20111;-71
2022/11/01 10:59:21;;;;;;;10.30;1.33;;;16.40;99.90;;;;;;5097452;28;20028;-70
2022/11/01 11:01:49;;;;;;;8.90;0.80;;;16.20;99.90;;;;;;5097854;27;20039;-70
2022/11/01 11:04:19;;;;;;;6.95;0.93;;;16.10;99.90;;;;;;5102610;28;20034;-71
2022/11/01 11:06:45;;;;;;;7.40;1.00;;;16.40;99.90;;;;;;5096697;28;20067;-70
2022/11/01 11:09:33;;;;;;;8.43;0.90;;;16.80;99.90;;;;;;5098600;28;20519;-70
2022/11/01 11:12:07;;;;;;;10.45;1.20;;;17.20;99.90;;;;;;5099283;27;20034;-71
2022/11/01 11:14:35;;;;;;;6.63;0.80;;;17.20;99.90;;;;;;5097050;28;20172;-70
2022/11/01 11:17:02;;;;;;;2.63;0.60;;;17.00;99.90;;;;;;5095604;28;20027;-70
2022/11/01 11:19:37;;;;;;;3.38;0.68;;;16.70;99.90;;;;;;5097292;27;20042;-71
2022/11/01 11:22:06;;;;;;;11.18;0.75;;;16.40;99.90;;;;;;5097014;28;20054;-70
2022/11/01 11:24:38;;;;;;;13.85;1.38;;;16.20;99.90;;;;;;5100081;28;20035;-69
2022/11/01 11:27:30;;;;;;;7.82;0.82;;;16.20;99.90;;;;;;5101987;27;20565;-71
2022/11/01 11:29:57;;;;;;;5.30;0.88;;;16.10;99.90;;;;;;5082490;28;20048;-69
2022/11/01 11:32:24;;;;;;;14.45;1.67;;;16.00;99.90;;;;;;5082946;28;20138;-69
2022/11/01 11:34:54;;;;;;;7.55;0.90;;;15.90;99.90;;;;;;5080732;28;20036;-71
2022/11/01 11:37:27;;;;;;;7.30;1.02;;;15.90;99.90;;;;;;5085793;28;20088;-71
2022/11/01 11:40:11;;;;;;;9.77;1.33;;;15.80;99.90;;;;;;5082402;28;20492;-70
2022/11/01 11:42:37;;;;;;;4.13;0.93;;;15.80;99.90;;;;;;5083628;28;20093;-70
2022/11/01 11:45:20;;;;;;;8.43;1.98;;;15.80;99.90;;;;;;5083665;28;20503;-69
2022/11/01 11:47:46;;;;;;;3.53;1.17;;;15.90;99.90;;;;;;5082876;28;20719;-69
2022/11/01 11:50:18;;;;;;;9.35;1.08;;;15.90;99.90;;;;;;5084653;28;20024;-70
2022/11/01 11:53:06;;;;;;;5.65;0.57;;;15.80;99.90;;;;;;5084736;28;20046;-72
2022/11/01 11:55:47;;;;;;;4.30;0.80;;;15.90;99.90;;;;;;5084327;28;20064;-69
2022/11/01 11:58:41;;;;;;;9.00;1.20;;;15.90;99.90;;;;;;5097615;28;20161;-71
2022/11/01 12:01:10;;;;;;;6.53;0.90;;;15.90;99.90;;;;;;5096946;28;20441;-69
2022/11/01 12:03:58;;;;;;;6.15;0.70;;;15.90;99.90;;;;;;5099523;28;20048;-71
2022/11/01 12:06:28;;;;;;;6.60;1.23;;;15.90;99.90;;;;;;5098163;28;20074;-71
2022/11/01 12:08:58;;;;;;;6.85;0.80;;;15.90;99.90;;;;;;5098165;28;20034;-72
2022/11/01 12:11:37;;;;;;;3.30;0.73;;;15.90;99.90;;;;;;5097007;28;20036;-70
2022/11/01 12:14:04;;;;;;;3.97;0.70;;;15.90;99.90;;;;;;5096721;28;20062;-72
2022/11/01 12:16:39;;;;;;;5.85;0.50;;;15.90;99.90;;;;;;5095803;28;20078;-70
2022/11/01 12:19:20;;;;;;;8.48;1.30;;;16.00;99.90;;;;;;5099295;28;20035;-70
2022/11/01 12:21:46;;;;;;;5.90;0.85;;;16.00;99.90;;;;;;5098914;28;20035;-70
2022/11/01 12:24:15;;;;;;;11.15;1.52;;;16.10;99.90;;;;;;5099740;28;20035;-70
2022/11/01 12:26:42;;;;;;;35.50;1.40;;;16.00;99.90;;;;;;5097560;28;20094;-71
2022/11/01 12:29:25;;;;;;;3.75;0.50;;;16.00;99.90;;;;;;5100822;27;20050;-69
2022/11/01 12:31:53;;;;;;;3.90;0.80;;;16.00;99.90;;;;;;5096983;27;20032;-70
2022/11/01 12:34:23;;;;;;;7.30;0.75;;;16.00;99.90;;;;;;5091283;28;20032;-70
2022/11/01 12:37:04;;;;;;;5.63;0.85;;;16.00;99.90;;;;;;5089867;28;20536;-70
2022/11/01 12:39:51;;;;;;;5.13;0.80;;;16.00;99.90;;;;;;5091788;27;20096;-69
2022/11/01 12:42:29;;;;;;;6.40;0.85;;;16.10;99.90;;;;;;5104724;28;20032;-70
2022/11/01 12:45:14;;;;;;;7.50;1.10;;;16.10;99.90;;;;;;5104177;27;20039;-70
2022/11/01 12:47:44;;;;;;;9.45;0.90;;;16.10;99.90;;;;;;5104995;27;20032;-68
2022/11/01 12:50:24;;;;;;;;;;;16.10;99.90;;;;;;5120352;27;20581;-69
2022/11/01 12:52:55;;;;;;;9.53;0.77;;;16.10;99.90;;;;;;5102849;27;19912;-68
2022/11/01 12:55:39;;;;;;;4.35;0.70;;;16.10;99.90;;;;;;5107192;27;20100;-69
2022/11/01 12:58:10;;;;;;;3.58;0.55;;;16.20;99.90;;;;;;5105706;27;20032;-68
2022/11/01 13:00:57;;;;;;;5.05;0.50;;;16.20;99.90;;;;;;5104638;27;20039;-69
2022/11/01 13:03:47;;;;;;;3.63;0.40;;;16.10;99.90;;;;;;5111090;27;20032;-68
2022/11/01 13:06:36;;;;;;;11.93;0.55;;;16.10;99.90;;;;;;5108813;27;20403;-70
2022/11/01 13:09:15;;;;;;;5.13;0.55;;;16.10;99.90;;;;;;5096606;27;20028;-69